createdAt,value
2022-08-05T00:00:18.681Z,99788.91
2022-08-05T00:02:50.794Z,99802.56
2022-08-05T00:06:01.505Z,99802.25
2022-08-05T00:08:32.639Z,99817.78
2022-08-05T00:11:20.605Z,99817.78
2022-08-05T00:13:57.787Z,99825.81
2022-08-05T00:16:36.273Z,99826.09
2022-08-05T00:19:11.751Z,99832.75
2022-08-05T00:21:42.680Z,99833.31
2022-08-05T00:24:11.247Z,99831.41
2022-08-05T00:26:51.735Z,99836.78
2022-08-05T00:29:25.759Z,99837.03
2022-08-05T00:32:12.124Z,99839.16
2022-08-05T00:35:04.511Z,99852.50
2022-08-05T00:37:51.002Z,99857.31
2022-08-05T00:40:28.397Z,99851.97
2022-08-05T00:43:02.086Z,99856.53
2022-08-05T00:45:38.435Z,99843.13
2022-08-05T00:48:27.677Z,99830.88
2022-08-05T00:50:58.508Z,99825.25
2022-08-05T00:54:01.296Z,99821.53
2022-08-05T00:56:14.642Z,99813.72
2022-08-05T00:58:45.213Z,99802.81
2022-08-05T01:01:13.368Z,99787.03
2022-08-05T01:03:40.544Z,99786.50
2022-08-05T01:06:14.100Z,99812.94
2022-08-05T01:08:44.574Z,99818.25
2022-08-05T01:11:37.221Z,99822.50
2022-08-05T01:14:33.870Z,99833.75
2022-08-05T01:17:07.460Z,99837.72
2022-08-05T01:20:00.739Z,99842.75
2022-08-05T01:23:14.226Z,99827.50
2022-08-05T01:26:26.931Z,99820.84
2022-08-05T01:29:30.728Z,99821.84
2022-08-05T01:32:03.379Z,99817.06
2022-08-05T01:34:59.322Z,99819.72
2022-08-05T01:37:51.854Z,99829.22
2022-08-05T01:40:29.135Z,99829.41
2022-08-05T01:42:59.302Z,99834.84
2022-08-05T01:45:28.249Z,99832.50
2022-08-05T01:48:03.220Z,99844.41
2022-08-05T01:50:40.802Z,99848.97
2022-08-05T01:53:54.849Z,99848.69
2022-08-05T01:56:11.323Z,99858.38
2022-08-05T01:58:44.947Z,99858.13
2022-08-05T02:01:15.123Z,99867.13
2022-08-05T02:03:53.564Z,99878.91
2022-08-05T02:06:37.738Z,99883.78
2022-08-05T02:09:06.794Z,99905.84
2022-08-05T02:12:03.644Z,99917.97
2022-08-05T02:15:01.123Z,99914.38
2022-08-05T02:18:32.235Z,99900.53
2022-08-05T02:20:27.244Z,99893.19
2022-08-05T02:23:01.750Z,99881.50
2022-08-05T02:25:33.612Z,99886.06
2022-08-05T02:28:29.074Z,99902.53
2022-08-05T02:31:04.296Z,99897.59
2022-08-05T02:33:38.882Z,99906.59
2022-08-05T02:36:19.804Z,99903.59
2022-08-05T02:38:53.702Z,99908.34
2022-08-05T02:41:28.378Z,99912.59
2022-08-05T02:44:02.337Z,99915.34
2022-08-05T02:46:36.071Z,99902.41
2022-08-05T02:49:21.978Z,99900.81
2022-08-05T02:52:03.094Z,99885.25
2022-08-05T02:54:35.702Z,99882.13
2022-08-05T02:57:09.852Z,99863.13
2022-08-05T02:59:56.359Z,99852.63
2022-08-05T03:02:29.878Z,99843.53
2022-08-05T03:04:59.129Z,99836.25
2022-08-05T03:08:01.111Z,99841.47
2022-08-05T03:10:24.563Z,99853.41
2022-08-05T03:15:23.440Z,99871.66
2022-08-05T03:17:55.452Z,99873.63
2022-08-05T03:20:24.520Z,99887.53
2022-08-05T03:22:57.079Z,99917.44
2022-08-05T03:25:33.476Z,99950.25
2022-08-05T03:28:14.539Z,99957.75
2022-08-05T03:30:49.499Z,99958.38
2022-08-05T03:33:18.646Z,99953.03
2022-08-05T03:35:48.423Z,99948.66
2022-08-05T03:38:17.471Z,99940.41
2022-08-05T03:41:00.554Z,99951.09
2022-08-05T03:44:08.930Z,99949.13
2022-08-05T03:46:26.806Z,99962.19
2022-08-05T03:48:58.624Z,99969.44
2022-08-05T03:52:48.402Z,99980.38
2022-08-05T03:55:50.144Z,99999.44
2022-08-05T03:57:41.794Z,100008.59
2022-08-05T04:00:15.520Z,100019.97
2022-08-05T04:02:58.629Z,100020.84
2022-08-05T04:05:35.603Z,100046.13
2022-08-05T04:08:30.396Z,100048.63
2022-08-05T04:10:56.450Z,100028.97
2022-08-05T04:13:26.156Z,100034.19
2022-08-05T04:16:14.390Z,100039.50
2022-08-05T04:18:42.212Z,100047.94
2022-08-05T04:22:05.009Z,100058.25
2022-08-05T04:24:06.776Z,100059.94
2022-08-05T04:26:36.214Z,100070.03
2022-08-05T04:29:07.469Z,100068.75
2022-08-05T04:31:38.396Z,100060.75
2022-08-05T04:34:31.307Z,100064.47
2022-08-05T04:36:53.448Z,100068.31
2022-08-05T04:39:21.041Z,100081.06
2022-08-05T04:41:51.025Z,100087.19
2022-08-05T04:44:29.385Z,100106.59
2022-08-05T04:46:59.210Z,100112.25
2022-08-05T04:49:38.722Z,100124.47
2022-08-05T04:52:15.276Z,100123.28
2022-08-05T04:54:42.538Z,100139.84
2022-08-05T04:57:09.508Z,100140.94
2022-08-05T04:59:39.339Z,100135.38
2022-08-05T05:02:37.314Z,100123.34
2022-08-05T05:05:02.202Z,100129.00
2022-08-05T05:07:32.409Z,100129.84
2022-08-05T05:10:04.150Z,100126.78
2022-08-05T05:12:31.345Z,100108.72
2022-08-05T05:14:58.533Z,100091.78
2022-08-05T05:17:56.929Z,100101.69
2022-08-05T05:20:14.110Z,100112.97
2022-08-05T05:22:43.960Z,100107.91
2022-08-05T05:25:16.374Z,100117.31
2022-08-05T05:27:53.526Z,100110.50
2022-08-05T05:30:31.413Z,100106.19
2022-08-05T05:33:08.977Z,100098.09
2022-08-05T05:35:45.131Z,100112.50
2022-08-05T05:38:13.336Z,100125.03
2022-08-05T05:40:49.910Z,100125.91
2022-08-05T05:43:27.527Z,100112.91
2022-08-05T05:46:13.808Z,100124.28
2022-08-05T05:48:44.284Z,100130.94
2022-08-05T05:51:15.010Z,100132.81
2022-08-05T05:53:54.102Z,100144.13
2022-08-05T05:56:33.004Z,100136.91
2022-08-05T05:59:08.037Z,100130.59
2022-08-05T06:01:40.734Z,100148.28
2022-08-05T06:04:24.444Z,100133.25
2022-08-05T06:06:51.687Z,100134.03
2022-08-05T06:09:25.420Z,100126.59
2022-08-05T06:12:06.444Z,100131.53
2022-08-05T06:14:36.913Z,100143.00
2022-08-05T06:17:24.319Z,100148.41
2022-08-05T06:19:56.554Z,100150.19
2022-08-05T06:22:34.794Z,100143.16
2022-08-05T06:25:25.157Z,100151.16
2022-08-05T06:28:12.210Z,100143.25
2022-08-05T06:30:42.011Z,100145.69
2022-08-05T06:33:10.887Z,100153.56
2022-08-05T06:36:07.850Z,100143.66
2022-08-05T06:38:36.824Z,100129.50
2022-08-05T06:41:07.919Z,100133.50
2022-08-05T06:43:58.622Z,100142.63
2022-08-05T06:46:30.382Z,100130.84
2022-08-05T06:48:59.714Z,100131.16
2022-08-05T06:51:30.910Z,100135.69
2022-08-05T06:54:03.915Z,100137.31
2022-08-05T06:56:34.671Z,100130.34
2022-08-05T06:59:03.833Z,100144.47
2022-08-05T07:01:35.776Z,100144.38
2022-08-05T07:04:04.055Z,100169.47
2022-08-05T07:06:32.188Z,100168.94
2022-08-05T07:09:04.221Z,100174.34
2022-08-05T07:11:37.034Z,100164.97
2022-08-05T07:14:28.912Z,100173.16
2022-08-05T07:18:01.400Z,100179.31
2022-08-05T07:20:32.478Z,100161.22
2022-08-05T07:22:37.515Z,100169.97
2022-08-05T07:25:22.493Z,100171.94
2022-08-05T07:27:59.785Z,100161.34
2022-08-05T07:30:34.022Z,100169.97
2022-08-05T07:33:16.435Z,100163.53
2022-08-05T07:36:05.229Z,100154.44
2022-08-05T07:38:42.602Z,100164.56
2022-08-05T07:42:08.866Z,100166.19
2022-08-05T07:44:05.838Z,100165.41
2022-08-05T07:46:41.654Z,100172.94
2022-08-05T07:49:15.452Z,100176.41
2022-08-05T07:51:53.405Z,100182.50
2022-08-05T07:54:31.412Z,100189.19
2022-08-05T07:57:18.147Z,100189.44
2022-08-05T07:59:52.151Z,100191.47
2022-08-05T08:02:31.025Z,100188.13
2022-08-05T08:05:13.506Z,100176.78
2022-08-05T08:08:00.053Z,100164.81
2022-08-05T08:10:29.401Z,100161.06
2022-08-05T08:12:58.591Z,100139.00
2022-08-05T08:16:33.619Z,100123.75
2022-08-05T08:18:14.167Z,100112.06
2022-08-05T08:21:00.642Z,100102.72
2022-08-05T08:24:01.104Z,100060.06
2022-08-05T08:26:15.755Z,100069.47
2022-08-05T08:28:59.543Z,100080.50
2022-08-05T08:31:29.192Z,100080.78
2022-08-05T08:33:59.940Z,100068.47
2022-08-05T08:36:38.495Z,100065.00
2022-08-05T08:39:15.253Z,100059.91
2022-08-05T08:41:50.921Z,100059.91
2022-08-05T08:45:24.100Z,100060.13
2022-08-05T08:47:22.209Z,100039.19
2022-08-05T08:50:23.316Z,100028.84
2022-08-05T08:52:54.553Z,100043.66
2022-08-05T08:56:03.002Z,100042.88
2022-08-05T08:58:12.825Z,100054.69
2022-08-05T09:00:42.369Z,100074.03
2022-08-05T09:03:16.103Z,100076.22
2022-08-05T09:06:07.613Z,100076.25
2022-08-05T09:08:34.772Z,100070.88
2022-08-05T09:11:01.854Z,100084.81
2022-08-05T09:13:31.796Z,100084.25
2022-08-05T09:16:17.024Z,100092.25
2022-08-05T09:18:44.462Z,100097.56
2022-08-05T09:21:20.494Z,100099.06
2022-08-05T09:24:08.749Z,100105.94
2022-08-05T09:26:37.423Z,100104.13
2022-08-05T09:29:09.132Z,100111.53
2022-08-05T09:32:40.147Z,100103.19
2022-08-05T09:34:23.341Z,100096.28
2022-08-05T09:36:55.280Z,100091.44
2022-08-05T09:39:39.275Z,100094.59
2022-08-05T09:42:20.224Z,100102.94
2022-08-05T09:44:56.470Z,100091.09
2022-08-05T09:47:48.096Z,100086.22
2022-08-05T09:50:17.932Z,100075.91
2022-08-05T09:53:01.420Z,100079.31
2022-08-05T09:55:57.383Z,100080.31
2022-08-05T09:58:24.688Z,100073.56
2022-08-05T10:01:14.774Z,100081.91
2022-08-05T10:04:10.497Z,100077.38
2022-08-05T10:06:40.666Z,100084.88
2022-08-05T10:09:27.535Z,100072.53
2022-08-05T10:12:18.721Z,100077.28
2022-08-05T10:15:20.428Z,100080.09
2022-08-05T10:18:16.790Z,100083.06
2022-08-05T10:20:52.660Z,100083.75
2022-08-05T10:23:55.802Z,100079.41
2022-08-05T10:26:15.057Z,100089.34
2022-08-05T10:28:47.195Z,100085.09
2022-08-05T10:32:47.741Z,100080.31
2022-08-05T10:34:07.174Z,100084.16
2022-08-05T10:36:40.932Z,100071.25
2022-08-05T10:39:25.285Z,100071.66
2022-08-05T10:42:33.582Z,100070.72
2022-08-05T10:45:15.984Z,100065.06
2022-08-05T10:48:30.340Z,100073.06
2022-08-05T10:51:22.375Z,100086.31
2022-08-05T10:54:01.042Z,100094.13
2022-08-05T10:56:49.509Z,100094.59
2022-08-05T11:00:02.939Z,100110.66
2022-08-05T11:02:34.602Z,100090.50
2022-08-05T11:05:09.436Z,100097.41
2022-08-05T11:08:34.339Z,100096.94
2022-08-05T11:11:44.736Z,100088.88
2022-08-05T11:17:58.034Z,100110.00
2022-08-05T11:20:39.240Z,100106.13
2022-08-05T11:24:03.182Z,100108.25
2022-08-05T11:26:28.281Z,100099.59
2022-08-05T11:28:56.805Z,100102.44
2022-08-05T11:31:57.147Z,100099.09
2022-08-05T11:34:50.985Z,100105.13
2022-08-05T11:38:36.715Z,100107.59
2022-08-05T11:41:13.854Z,100101.28
2022-08-05T11:44:10.669Z,100104.97
2022-08-05T11:47:10.296Z,100100.66
2022-08-05T11:49:34.585Z,100101.84
2022-08-05T11:52:11.431Z,100117.94
2022-08-05T11:54:41.288Z,100119.13
2022-08-05T11:57:25.467Z,100115.66
2022-08-05T11:59:54.667Z,100111.81
2022-08-05T12:02:31.765Z,100108.81
2022-08-05T12:05:07.010Z,100115.16
2022-08-05T12:08:07.374Z,100106.94
2022-08-05T12:10:38.517Z,100113.50
2022-08-05T12:13:28.020Z,100120.81
2022-08-05T12:16:14.484Z,100122.84
2022-08-05T12:18:48.707Z,100121.34
2022-08-05T12:21:23.655Z,100121.38
2022-08-05T12:24:04.570Z,100132.72
2022-08-05T12:26:36.162Z,100133.78
2022-08-05T12:29:15.837Z,100144.03
2022-08-05T12:31:54.316Z,100142.78
2022-08-05T12:34:32.291Z,100147.31
2022-08-05T12:37:06.510Z,100143.41
2022-08-05T12:39:37.476Z,100145.53
2022-08-05T12:42:17.546Z,100142.91
2022-08-05T12:44:46.037Z,100153.81
2022-08-05T12:47:30.699Z,100163.31
2022-08-05T12:50:02.338Z,100154.44
2022-08-05T12:52:39.579Z,100147.88
2022-08-05T12:55:28.543Z,100159.03
2022-08-05T12:58:48.202Z,100152.94
2022-08-05T13:02:03.860Z,100148.06
2022-08-05T13:03:42.055Z,100163.00
2022-08-05T13:06:19.877Z,100166.38
2022-08-05T13:08:52.010Z,100176.91
2022-08-05T13:11:25.352Z,100182.09
2022-08-05T13:14:24.717Z,100179.13
2022-08-05T13:17:16.629Z,100184.97
2022-08-05T13:20:17.259Z,100186.38
2022-08-05T13:22:52.367Z,100167.44
2022-08-05T13:25:22.139Z,100171.16
2022-08-05T13:28:08.056Z,100172.91
2022-08-05T13:30:39.173Z,100172.66
2022-08-05T13:33:06.330Z,100178.69
2022-08-05T13:35:47.088Z,100179.06
2022-08-05T13:38:31.192Z,100171.03
2022-08-05T13:41:03.941Z,100174.06
2022-08-05T13:43:44.683Z,100182.97
2022-08-05T13:46:14.397Z,100185.22
2022-08-05T13:49:00.240Z,100173.03
2022-08-05T13:51:36.548Z,100173.69
2022-08-05T13:54:12.925Z,100181.97
2022-08-05T13:56:45.173Z,100183.56
2022-08-05T13:59:23.828Z,100179.41
2022-08-05T14:01:57.784Z,100175.13
2022-08-05T14:04:51.760Z,100181.22
2022-08-05T14:07:59.576Z,100175.19
2022-08-05T14:10:30.826Z,100174.69
2022-08-05T14:12:59.760Z,100165.00
2022-08-05T14:16:08.477Z,100169.44
2022-08-05T14:18:18.305Z,100168.88
2022-08-05T14:20:54.461Z,100165.88
2022-08-05T14:23:25.939Z,100168.16
2022-08-05T14:25:58.763Z,100165.56
2022-08-05T14:28:30.333Z,100163.78
2022-08-05T14:30:59.450Z,100161.69
2022-08-05T14:33:27.876Z,100161.41
2022-08-05T14:36:14.876Z,100161.91
2022-08-05T14:38:42.242Z,100158.19
2022-08-05T14:41:11.735Z,100165.03
2022-08-05T14:43:58.810Z,100166.16
2022-08-05T14:46:30.698Z,100157.13
2022-08-05T14:49:06.315Z,100168.88
2022-08-05T14:51:37.636Z,100152.19
2022-08-05T14:54:28.291Z,100158.97
2022-08-05T14:56:54.929Z,100156.56
2022-08-05T14:59:22.548Z,100161.41
2022-08-05T15:01:50.419Z,100165.69
2022-08-05T15:04:20.602Z,100164.06
2022-08-05T15:06:49.668Z,100176.41
2022-08-05T15:09:52.223Z,100169.97
2022-08-05T15:12:11.435Z,100177.16
2022-08-05T15:14:49.625Z,100173.13
2022-08-05T15:17:46.502Z,100173.66
2022-08-05T15:20:18.919Z,100184.34
2022-08-05T15:22:53.971Z,100195.16
2022-08-05T15:25:51.185Z,100200.91
2022-08-05T15:28:14.480Z,100193.97
2022-08-05T15:30:43.788Z,100198.53
2022-08-05T15:33:56.853Z,100192.16
2022-08-05T15:36:03.422Z,100201.22
2022-08-05T15:38:36.562Z,100200.38
2022-08-05T15:41:23.102Z,100206.53
2022-08-05T15:43:55.005Z,100206.31
2022-08-05T15:46:24.165Z,100217.22
2022-08-05T15:48:58.579Z,100223.84
2022-08-05T15:52:09.996Z,100225.84
2022-08-05T15:54:16.671Z,100242.91
2022-08-05T15:56:43.758Z,100281.84
2022-08-05T15:59:19.830Z,100288.72
2022-08-05T16:01:53.094Z,100284.38
2022-08-05T16:04:25.383Z,100301.13
2022-08-05T16:06:55.516Z,100299.25
2022-08-05T16:09:24.802Z,100297.00
2022-08-05T16:11:54.040Z,100299.03
2022-08-05T16:14:23.268Z,100302.75
2022-08-05T16:16:50.840Z,100295.19
2022-08-05T16:19:25.538Z,100318.38
2022-08-05T16:22:07.301Z,100316.16
2022-08-05T16:24:51.728Z,100307.84
2022-08-05T16:27:19.647Z,100322.03
2022-08-05T16:30:08.456Z,100316.97
2022-08-05T16:32:52.092Z,100314.53
2022-08-05T16:35:19.892Z,100323.56
2022-08-05T16:38:03.118Z,100328.09
2022-08-05T16:40:48.086Z,100336.97
2022-08-05T16:43:27.555Z,100325.84
2022-08-05T16:46:05.101Z,100326.00
2022-08-05T16:48:38.321Z,100353.16
2022-08-05T16:51:08.946Z,100352.22
2022-08-05T16:54:05.650Z,100345.28
2022-08-05T16:56:30.543Z,100337.66
2022-08-05T16:59:00.872Z,100344.47
2022-08-05T17:01:52.910Z,100353.13
2022-08-05T17:04:27.623Z,100353.59
2022-08-05T17:07:03.625Z,100358.69
2022-08-05T17:09:58.210Z,100358.56
2022-08-05T17:12:50.522Z,100362.28
2022-08-05T17:15:19.204Z,100359.25
2022-08-05T17:17:54.810Z,100364.69
2022-08-05T17:20:22.530Z,100357.19
2022-08-05T17:22:55.615Z,100363.31
2022-08-05T17:25:39.279Z,100372.66
2022-08-05T17:28:06.818Z,100365.44
2022-08-05T17:30:50.648Z,100369.75
2022-08-05T17:33:19.968Z,100382.41
2022-08-05T17:36:07.465Z,100383.38
2022-08-05T17:38:34.369Z,100386.00
2022-08-05T17:41:02.022Z,100394.31
2022-08-05T17:43:47.257Z,100392.69
2022-08-05T17:46:18.362Z,100390.63
2022-08-05T17:48:47.706Z,100386.97
2022-08-05T17:51:21.699Z,100398.34
2022-08-05T17:53:54.464Z,100400.06
2022-08-05T17:56:22.713Z,100403.81
2022-08-05T17:58:51.236Z,100407.19
2022-08-05T18:01:19.640Z,100417.22
2022-08-05T18:03:58.677Z,100415.25
2022-08-05T18:06:31.705Z,100414.25
2022-08-05T18:08:59.547Z,100414.88
2022-08-05T18:11:33.261Z,100426.06
2022-08-05T18:14:04.297Z,100429.50
2022-08-05T18:16:35.716Z,100435.16
2022-08-05T18:19:22.654Z,100449.13
2022-08-05T18:22:08.369Z,100446.56
2022-08-05T18:24:37.836Z,100458.66
2022-08-05T18:27:12.490Z,100462.16
2022-08-05T18:29:48.216Z,100475.31
2022-08-05T18:32:21.008Z,100476.94
2022-08-05T18:34:56.219Z,100461.84
2022-08-05T18:37:34.696Z,100464.34
2022-08-05T18:41:54.236Z,100473.88
2022-08-05T18:43:00.324Z,100487.88
2022-08-05T18:45:41.861Z,100485.44
2022-08-05T18:48:11.054Z,100485.56
2022-08-05T18:50:56.692Z,100492.09
2022-08-05T18:53:29.521Z,100491.28
2022-08-05T18:56:01.905Z,100500.66
2022-08-05T18:58:39.867Z,100510.00
2022-08-05T19:01:10.192Z,100519.78
2022-08-05T19:03:55.513Z,100522.28
2022-08-05T19:06:34.177Z,100517.00
2022-08-05T19:09:10.819Z,100517.16
2022-08-05T19:12:01.063Z,100530.03
2022-08-05T19:14:53.341Z,100539.59
2022-08-05T19:17:12.924Z,100551.44
2022-08-05T19:19:46.330Z,100556.53
2022-08-05T19:22:16.915Z,100558.53
2022-08-05T19:24:56.549Z,100558.31
2022-08-05T19:27:30.210Z,100557.94
2022-08-05T19:29:58.309Z,100567.50
2022-08-05T19:32:26.199Z,100563.84
2022-08-05T19:34:55.955Z,100567.50
2022-08-05T19:37:29.843Z,100571.78
2022-08-05T19:40:15.098Z,100578.50
2022-08-05T19:42:42.382Z,100576.03
2022-08-05T19:45:30.469Z,100571.16
2022-08-05T19:48:01.067Z,100582.00
2022-08-05T19:50:28.723Z,100581.69
2022-08-05T19:52:56.805Z,100575.53
2022-08-05T19:56:14.308Z,100590.25
2022-08-05T19:58:28.427Z,100598.06
2022-08-05T20:00:56.908Z,100601.31
2022-08-05T20:03:26.125Z,100595.41
2022-08-05T20:05:56.646Z,100606.59
2022-08-05T20:08:24.573Z,100600.50
2022-08-05T20:10:53.164Z,100611.13
2022-08-05T20:13:29.841Z,100611.75
2022-08-05T20:15:57.731Z,100615.25
2022-08-05T20:18:33.120Z,100608.69
2022-08-05T20:21:04.702Z,100613.63
2022-08-05T20:23:39.357Z,100627.53
2022-08-05T20:26:17.257Z,100633.06
2022-08-05T20:28:50.482Z,100641.19
2022-08-05T20:31:21.971Z,100645.91
2022-08-05T20:33:56.352Z,100653.72
2022-08-05T20:36:24.335Z,100648.81
2022-08-05T20:38:53.717Z,100638.41
2022-08-05T20:41:24.235Z,100646.41
2022-08-05T20:44:00.428Z,100656.22
2022-08-05T20:46:33.579Z,100664.56
2022-08-05T20:49:00.570Z,100666.81
2022-08-05T20:51:29.763Z,100669.03
2022-08-05T20:54:01.317Z,100680.66
2022-08-05T20:56:32.946Z,100681.47
2022-08-05T20:59:19.253Z,100674.53
2022-08-05T21:01:57.364Z,100685.56
2022-08-05T21:04:26.893Z,100694.16
2022-08-05T21:06:54.840Z,100701.69
2022-08-05T21:09:22.985Z,100708.19
2022-08-05T21:12:07.229Z,100705.78
2022-08-05T21:14:36.448Z,100710.84
2022-08-05T21:17:05.416Z,100706.16
2022-08-05T21:19:46.898Z,100700.06
2022-08-05T21:22:17.675Z,100704.31
2022-08-05T21:24:51.668Z,100704.97
2022-08-05T21:27:24.771Z,100701.09
2022-08-05T21:29:55.269Z,100705.97
2022-08-05T21:32:27.637Z,100703.91
2022-08-05T21:35:16.829Z,100703.75
2022-08-05T21:37:47.207Z,100697.00
2022-08-05T21:40:16.644Z,100701.13
2022-08-05T21:42:45.628Z,100695.78
2022-08-05T21:45:24.013Z,100702.72
2022-08-05T21:47:56.055Z,100698.25
2022-08-05T21:50:26.506Z,100708.03
2022-08-05T21:52:58.957Z,100719.44
2022-08-05T21:56:00.865Z,100727.38
2022-08-05T21:58:30.834Z,100741.03
2022-08-05T22:01:00.423Z,100736.53
2022-08-05T22:03:48.924Z,100726.78
2022-08-05T22:06:22.314Z,100734.28
2022-08-05T22:08:52.136Z,100735.75
2022-08-05T22:11:34.772Z,100740.22
2022-08-05T22:14:37.337Z,100745.69
2022-08-05T22:16:56.994Z,100751.34
2022-08-05T22:20:01.592Z,100760.88
2022-08-05T22:22:15.912Z,100762.09
2022-08-05T22:25:01.900Z,100756.22
2022-08-05T22:28:10.622Z,100768.63
2022-08-05T22:30:34.910Z,100772.41
2022-08-05T22:33:15.591Z,100774.63
2022-08-05T22:35:49.236Z,100777.03
2022-08-05T22:38:19.729Z,100784.00
2022-08-05T22:40:49.977Z,100782.97
2022-08-05T22:43:36.689Z,100786.84
2022-08-05T22:46:13.060Z,100799.78
2022-08-05T22:48:48.155Z,100798.09
2022-08-05T22:51:16.110Z,100805.22
2022-08-05T22:53:51.057Z,100809.94
2022-08-05T22:56:30.449Z,100806.69
2022-08-05T22:59:02.914Z,100805.97
2022-08-05T23:02:04.480Z,100818.19
2022-08-05T23:04:18.900Z,100827.25
2022-08-05T23:06:46.168Z,100818.09
2022-08-05T23:09:52.744Z,100826.66
2022-08-05T23:12:02.406Z,100836.13
2022-08-05T23:14:32.057Z,100826.38
2022-08-05T23:17:24.347Z,100837.44
2022-08-05T23:20:02.471Z,100834.19
2022-08-05T23:22:30.865Z,100842.81
2022-08-05T23:24:58.195Z,100848.31
2022-08-05T23:27:31.362Z,100852.34
2022-08-05T23:30:10.678Z,100852.19
2022-08-05T23:32:37.974Z,100851.72
2022-08-05T23:35:12.627Z,100858.38
2022-08-05T23:37:39.659Z,100871.84
2022-08-05T23:40:09.593Z,100871.22
2022-08-05T23:42:38.872Z,100883.69
2022-08-05T23:45:14.438Z,100891.47
2022-08-05T23:47:47.746Z,100890.41
2022-08-05T23:50:17.125Z,100894.22
2022-08-05T23:52:49.758Z,100895.75
2022-08-05T23:55:19.120Z,100905.22
2022-08-05T23:57:48.953Z,100902.13
